首页
METAR-TAF:

METAR-TAF

机场 :

庫拉索國際機場

库拉索, 荷属安的列斯

纬度: 12-12N, 经度: 068-58W, 海拔: 9米

当前天气观测

该预报发布于21分钟前的18:00 UTC
风速16节,风向
温度 32°C
湿度 56%
气压 1015 hPa
能见度10公里或以上
少量云层高于2400英尺

METAR: TNCC 061800Z 10016KT 9999 FEW024 32/22 Q1015 NOSIG

时间: 14:21 (18:21 UTC)

预报

预报有效从06日的 18点(UTC)到 07日的 18点(UTC)
风速15节,风向
能见度10公里或以上
少量云层高于2500英尺

TAF: TNCC 0618/0718 10015KT 9999 FEW025

超过4000个机场的气象观测和天气预报(METAR&TAF报告)。

可查询的气象台以黄色和红色小点在地图上表示。

将鼠标移到小点上方,可查看气象台名称。

然后点击查看天气观测和预报。

如需切换地图:点击带黑十字的绿色按钮放大地图;点击带横线的绿色按钮缩小地图;或者点击绿色箭头查看邻近地区的地图。


METAR-TAF: